lsbags.co.uk alexa rank chart, lsbags.co.uk alexa rank daily changes

lsbags.co.uk alexa rank chart, lsbags.co.uk alexa rank daily changes

lsbags.co.uk
Actual rank:
401 695

RANK HISTORY

Date Rank Diff
2017/09/20 401 695 -1 330
2017/09/19 403 025 +5 050
2017/09/18 397 975 -9 875
2017/09/17 407 850 +13 468
2017/09/16 394 382 -388
2017/09/15 394 770 -12 605
2017/09/14 407 375 -1 146
2017/09/13 408 521 -653
2017/09/12 409 174 -4 754
2017/09/11 413 928 +9 874
2017/09/10 404 054 +10 868
2017/09/09 393 186 -7 057
2017/09/08 400 243 -8 112
2017/09/07 408 355 -7 240
2017/09/06 415 595 +7 628
2017/09/05 407 967 +12 872
2017/09/04 395 095 -3 352
2017/09/03 398 447 -7 582
2017/09/02 406 029 +9 386
2017/09/01 396 643 +3 678
2017/08/31 392 965 -2 410
2017/08/30 395 375 -11 711
2017/08/29 407 086 +13 697
2017/08/28 393 389 +8 916
2017/08/27 384 473 +14 997
2017/08/26 369 476 -4 972
2017/08/25 374 448 -9 811
2017/08/24 384 259 +21 102
2017/08/23 363 157 -7 268
2017/08/22 370 425 -4 068
2017/08/21 374 493 +5 553
2017/08/20 368 940 -13 625
2017/08/19 382 565 -16 328
2017/08/18 398 893 +4 969
2017/08/17 393 924 -7 699
2017/08/16 401 623 +3 682
2017/08/15 397 941 +7 154
2017/08/14 390 787 +9 213
2017/08/13 381 574 +11 927
2017/08/12 369 647 -838
2017/08/11 370 485 -11 296
2017/08/10 381 781 -13 814
2017/08/09 395 595 +5 760
2017/08/08 389 835 +18 640
2017/08/07 371 195 +10 625
2017/08/06 360 570 +4 879
2017/08/05 355 691 +3 203
2017/08/04 352 488 -1 527
2017/08/03 354 015 +4 002
2017/08/02 350 013 +1 207
2017/08/01 348 806 -2 508
2017/07/31 351 314 +4 859
2017/07/30 346 455 +6 935
2017/07/29 339 520 -9 434
2017/07/28 348 954 -1 870
2017/07/27 350 824 -10 888
2017/07/26 361 712 +3 873
2017/07/25 357 839 +6 275
2017/07/24 351 564 -13 319
2017/07/23 364 883 +11 528
2017/07/22 353 355

WIDGET FOR YOUR SITE

DOMAINS WITH THE NEAREST RANK

Domain Rank
tipkecantikan.com 401 690
bennetyee.org 401 691
tripdatabase.com 401 692
swiftmi.com 401 693
easylinks.io 401 694
lsbags.co.uk 401 695
dendyemulator.ru 401 696
colorkinetics.com 401 697
castinstyle.co.uk 401 698
turkdls.tk 401 699
oeildafrique.com 401 700

DOMAINS WITH THE NEAREST RANK BY TLD .co.uk

Domain Rank
timeetc.co.uk 401 057
selima.co.uk 401 149
origins.co.uk 401 386
bolc.co.uk 401 538
coffeehit.co.uk 401 684
lsbags.co.uk 401 695
castinstyle.co.uk 401 698
rm-tailoredremovals.co.uk 402 008
sartexquilts.co.uk 402 013
eurocampings.co.uk 402 098
autoedit.co.uk 402 115